createdAt,value
2019-05-07T00:03:05.934Z,8.68
2019-05-07T00:07:12.897Z,8.73
2019-05-07T00:11:17.471Z,8.74
2019-05-07T00:15:23.958Z,8.75
2019-05-07T00:19:28.846Z,8.77
2019-05-07T00:23:33.736Z,8.80
2019-05-07T00:27:38.616Z,8.74
2019-05-07T00:31:43.509Z,8.71
2019-05-07T00:35:50.034Z,8.75
2019-05-07T00:39:59.350Z,8.74
2019-05-07T00:44:05.667Z,8.73
2019-05-07T00:48:12.573Z,8.70
2019-05-07T00:52:17.212Z,8.69
2019-05-07T00:56:22.526Z,8.69
2019-05-07T01:00:27.840Z,8.64
2019-05-07T01:04:33.200Z,8.59
2019-05-07T01:08:38.093Z,8.59
2019-05-07T01:12:42.974Z,8.61
2019-05-07T01:16:47.866Z,8.58
2019-05-07T01:20:53.456Z,8.57
2019-05-07T01:24:58.487Z,8.60
2019-05-07T01:29:03.559Z,8.61
2019-05-07T01:33:28.129Z,8.54
2019-05-07T01:37:33.019Z,8.40
2019-05-07T01:41:37.908Z,8.24
2019-05-07T01:45:49.402Z,8.19
2019-05-07T01:49:54.878Z,8.11
2019-05-07T01:53:58.914Z,8.06
2019-05-07T01:58:04.834Z,8.08
2019-05-07T02:02:12.138Z,7.98
2019-05-07T02:06:22.036Z,7.94
2019-05-07T02:10:28.632Z,7.85
2019-05-07T02:14:33.524Z,7.85
2019-05-07T02:18:38.408Z,7.93
2019-05-07T02:22:43.295Z,8.01
2019-05-07T02:26:48.185Z,8.02
2019-05-07T02:30:53.632Z,8.01
2019-05-07T02:34:58.638Z,8.01
2019-05-07T02:39:12.858Z,8.00
2019-05-07T02:43:18.004Z,8.09
2019-05-07T02:47:23.636Z,8.09
2019-05-07T02:51:39.109Z,8.04
2019-05-07T02:55:45.631Z,8.05
2019-05-07T02:59:54.077Z,8.07
2019-05-07T03:03:57.183Z,8.09
2019-05-07T03:08:03.345Z,8.08
2019-05-07T03:12:08.424Z,7.98
2019-05-07T03:16:13.400Z,7.94
2019-05-07T03:20:22.785Z,7.97
2019-05-07T03:24:28.143Z,7.93
2019-05-07T03:28:34.670Z,7.85
2019-05-07T03:32:47.671Z,7.79
2019-05-07T03:36:56.289Z,7.71
2019-05-07T03:40:59.727Z,7.80
2019-05-07T03:45:24.508Z,7.85
2019-05-07T03:49:36.220Z,7.88
2019-05-07T03:53:43.535Z,7.88
2019-05-07T03:57:47.699Z,7.83
2019-05-07T04:01:53.845Z,7.89
2019-05-07T04:05:58.853Z,7.92
2019-05-07T04:10:09.731Z,7.86
2019-05-07T04:14:13.638Z,7.84
2019-05-07T04:18:18.730Z,7.85
2019-05-07T04:22:28.614Z,7.86
2019-05-07T04:26:35.052Z,7.85
2019-05-07T04:30:43.479Z,7.86
2019-05-07T04:34:55.459Z,7.81
2019-05-07T04:39:03.022Z,7.85
2019-05-07T04:43:08.407Z,7.92
2019-05-07T04:47:24.104Z,7.96
2019-05-07T04:51:23.233Z,7.99
2019-05-07T04:55:28.286Z,8.00
2019-05-07T04:59:33.258Z,8.12
2019-05-07T05:03:39.351Z,8.14
2019-05-07T05:07:44.403Z,8.20
2019-05-07T05:11:49.326Z,8.17
2019-05-07T05:15:54.216Z,8.28
2019-05-07T05:20:01.386Z,8.40
2019-05-07T05:24:07.327Z,8.61
2019-05-07T05:28:12.893Z,8.91
2019-05-07T05:32:17.784Z,9.00
2019-05-07T05:36:22.684Z,9.01
2019-05-07T05:40:28.641Z,9.05
2019-05-07T05:44:34.397Z,9.22
2019-05-07T05:48:39.289Z,9.34
2019-05-07T05:52:45.820Z,9.44
2019-05-07T05:56:56.746Z,9.52
2019-05-07T06:01:19.845Z,9.69
2019-05-07T06:05:38.398Z,9.83
2019-05-07T06:09:44.928Z,10.15
2019-05-07T06:13:57.505Z,10.36
2019-05-07T06:18:20.507Z,10.44
2019-05-07T06:22:22.319Z,10.52
2019-05-07T06:26:27.356Z,10.51
2019-05-07T06:30:33.845Z,10.54
2019-05-07T06:34:41.744Z,10.63
2019-05-07T06:38:47.071Z,10.78
2019-05-07T06:42:56.568Z,10.98
2019-05-07T06:47:02.431Z,11.23
2019-05-07T06:51:07.541Z,11.51
2019-05-07T06:55:12.776Z,11.84
2019-05-07T06:59:25.732Z,12.15
2019-05-07T07:03:38.199Z,12.45
2019-05-07T07:07:47.563Z,13.01
2019-05-07T07:11:57.014Z,13.36
2019-05-07T07:16:02.119Z,13.74
2019-05-07T07:20:07.220Z,14.19
2019-05-07T07:24:12.776Z,14.26
2019-05-07T07:28:17.793Z,14.46
2019-05-07T07:32:24.318Z,14.45
2019-05-07T07:36:32.054Z,14.47
2019-05-07T07:40:38.682Z,14.73
2019-05-07T07:44:43.648Z,14.92
2019-05-07T07:49:03.164Z,14.98
2019-05-07T07:52:55.135Z,14.70
2019-05-07T07:57:07.405Z,14.13
2019-05-07T08:01:13.962Z,14.09
2019-05-07T08:05:18.854Z,14.18
2019-05-07T08:09:25.827Z,14.12
2019-05-07T08:13:32.353Z,13.78
2019-05-07T08:17:36.941Z,13.44
2019-05-07T08:21:42.137Z,13.29
2019-05-07T08:25:52.508Z,13.38
2019-05-07T08:29:56.805Z,13.17
2019-05-07T08:34:03.338Z,13.04
2019-05-07T08:38:08.238Z,12.79
2019-05-07T08:42:13.143Z,12.74
2019-05-07T08:46:35.734Z,12.79
2019-05-07T08:50:41.944Z,12.68
2019-05-07T08:54:46.820Z,12.20
2019-05-07T08:58:52.661Z,11.80
2019-05-07T09:02:57.663Z,11.69
2019-05-07T09:07:02.961Z,11.76
2019-05-07T09:11:07.884Z,11.81
2019-05-07T09:15:13.329Z,11.90
2019-05-07T09:19:18.218Z,11.78
2019-05-07T09:23:23.115Z,11.86
2019-05-07T09:27:32.833Z,11.97
2019-05-07T09:31:45.370Z,11.92
2019-05-07T09:35:52.821Z,12.09
2019-05-07T09:39:58.588Z,12.34
2019-05-07T09:44:03.486Z,12.60
2019-05-07T09:48:08.382Z,13.19
2019-05-07T09:52:13.283Z,13.58
2019-05-07T09:56:18.184Z,13.77
2019-05-07T10:00:24.804Z,13.83
2019-05-07T10:04:29.696Z,13.76
2019-05-07T10:08:34.663Z,13.59
2019-05-07T10:12:44.136Z,13.45
2019-05-07T10:16:56.701Z,13.36
2019-05-07T10:21:02.516Z,13.35
2019-05-07T10:25:08.276Z,13.22
2019-05-07T10:29:13.165Z,13.25
2019-05-07T10:33:18.432Z,13.34
2019-05-07T10:37:23.407Z,13.46
2019-05-07T10:41:28.366Z,13.50
2019-05-07T10:45:42.139Z,13.53
2019-05-07T10:49:48.801Z,13.76
2019-05-07T10:53:53.703Z,14.16
2019-05-07T10:57:58.598Z,14.49
2019-05-07T11:02:05.192Z,14.64
2019-05-07T11:06:11.976Z,15.26
2019-05-07T11:10:17.326Z,15.49
2019-05-07T11:14:22.289Z,15.53
2019-05-07T11:18:32.281Z,15.34
2019-05-07T11:22:37.391Z,15.01
2019-05-07T11:26:42.359Z,15.01
2019-05-07T11:30:47.258Z,15.10
2019-05-07T11:34:52.854Z,15.26
2019-05-07T11:38:58.757Z,15.24
2019-05-07T11:43:14.055Z,15.24
2019-05-07T11:47:26.701Z,14.92
2019-05-07T11:51:33.581Z,14.78
2019-05-07T11:55:38.518Z,14.87
2019-05-07T11:59:43.422Z,14.90
2019-05-07T12:03:48.307Z,14.81
2019-05-07T12:07:53.202Z,14.65
2019-05-07T12:11:58.101Z,14.48
2019-05-07T12:16:03.245Z,14.48
2019-05-07T12:20:08.420Z,14.81
2019-05-07T12:24:16.266Z,15.09
2019-05-07T12:28:22.288Z,15.42
2019-05-07T12:32:28.205Z,15.73
2019-05-07T12:36:33.115Z,15.81
2019-05-07T12:40:38.007Z,15.81
2019-05-07T12:44:43.165Z,16.06
2019-05-07T12:48:48.059Z,15.96
2019-05-07T12:52:57.762Z,15.51
2019-05-07T12:57:02.668Z,15.35
2019-05-07T13:01:25.654Z,15.26
2019-05-07T13:05:30.562Z,15.46
2019-05-07T13:09:35.448Z,15.60
2019-05-07T13:13:42.354Z,15.68
2019-05-07T13:17:47.288Z,15.76
2019-05-07T13:21:52.260Z,15.98
2019-05-07T13:25:57.157Z,16.17
2019-05-07T13:30:02.772Z,16.33
2019-05-07T13:34:08.739Z,16.37
2019-05-07T13:38:15.427Z,16.39
2019-05-07T13:42:22.029Z,16.44
2019-05-07T13:46:28.383Z,16.67
2019-05-07T13:50:33.259Z,16.62
2019-05-07T13:54:38.228Z,16.59
2019-05-07T13:58:43.195Z,16.68
2019-05-07T14:02:49.159Z,16.62
2019-05-07T14:06:54.057Z,16.29
2019-05-07T14:10:58.949Z,16.00
2019-05-07T14:15:04.187Z,15.93
2019-05-07T14:19:09.356Z,16.12
2019-05-07T14:23:14.436Z,16.28
2019-05-07T14:27:19.433Z,16.34
2019-05-07T14:31:24.321Z,16.04
2019-05-07T14:35:32.217Z,15.78
2019-05-07T14:39:37.230Z,15.71
2019-05-07T14:43:43.771Z,15.68
2019-05-07T14:47:48.735Z,15.58
2019-05-07T14:51:54.123Z,15.58
2019-05-07T14:55:59.176Z,15.66
2019-05-07T15:00:06.617Z,15.66
2019-05-07T15:04:12.894Z,15.97
2019-05-07T15:08:17.869Z,16.09
2019-05-07T15:12:23.456Z,16.12
2019-05-07T15:16:28.611Z,16.25
2019-05-07T15:20:34.384Z,16.42
2019-05-07T15:24:41.768Z,16.52
2019-05-07T15:28:48.712Z,16.58
2019-05-07T15:32:53.664Z,16.50
2019-05-07T15:36:58.636Z,16.47
2019-05-07T15:41:04.276Z,16.49
2019-05-07T15:45:09.543Z,16.41
2019-05-07T15:49:14.440Z,16.17
2019-05-07T15:53:33.692Z,15.99
2019-05-07T15:57:38.744Z,15.94
2019-05-07T16:01:43.565Z,15.91
2019-05-07T16:05:48.463Z,15.85
2019-05-07T16:09:53.355Z,15.83
2019-05-07T16:14:05.817Z,15.90
2019-05-07T16:18:14.899Z,16.07
2019-05-07T16:22:22.211Z,16.19
2019-05-07T16:26:27.214Z,16.09
2019-05-07T16:30:32.476Z,15.92
2019-05-07T16:34:37.485Z,15.60
2019-05-07T16:38:42.377Z,15.61
2019-05-07T16:42:47.277Z,15.51
2019-05-07T16:46:53.467Z,15.30
2019-05-07T16:50:58.451Z,15.11
2019-05-07T16:55:04.013Z,14.97
2019-05-07T16:59:09.013Z,14.81
2019-05-07T17:03:15.532Z,14.48
2019-05-07T17:07:22.406Z,14.40
2019-05-07T17:11:27.036Z,14.01
2019-05-07T17:15:33.559Z,14.01
2019-05-07T17:19:38.460Z,13.94
2019-05-07T17:23:44.767Z,13.94
2019-05-07T17:27:49.729Z,13.88
2019-05-07T17:31:54.619Z,13.91
2019-05-07T17:35:59.506Z,13.76
2019-05-07T17:40:06.843Z,13.58
2019-05-07T17:44:12.024Z,13.43
2019-05-07T17:48:16.989Z,13.23
2019-05-07T17:52:22.881Z,12.94
2019-05-07T17:56:27.736Z,12.69
2019-05-07T18:00:32.988Z,12.65
2019-05-07T18:04:50.541Z,12.68
2019-05-07T18:08:45.890Z,12.52
2019-05-07T18:12:53.319Z,12.35
2019-05-07T18:16:59.007Z,12.17
2019-05-07T18:21:05.194Z,11.96
2019-05-07T18:25:12.395Z,11.89
2019-05-07T18:29:17.434Z,11.75
2019-05-07T18:33:23.980Z,11.60
2019-05-07T18:37:28.866Z,11.47
2019-05-07T18:41:33.768Z,11.43
2019-05-07T18:45:38.661Z,11.34
2019-05-07T18:49:44.856Z,11.28
2019-05-07T18:53:51.932Z,11.24
2019-05-07T18:57:56.975Z,11.16
2019-05-07T19:02:02.344Z,11.05
2019-05-07T19:06:08.459Z,10.97
2019-05-07T19:10:13.414Z,10.91
2019-05-07T19:14:18.327Z,10.76
2019-05-07T19:18:23.216Z,10.58
2019-05-07T19:22:29.178Z,10.45
2019-05-07T19:26:34.075Z,10.25
2019-05-07T19:30:38.972Z,10.19
2019-05-07T19:34:43.870Z,10.12
2019-05-07T19:38:48.761Z,10.07
2019-05-07T19:42:53.658Z,9.95
2019-05-07T19:46:58.542Z,9.88
2019-05-07T19:51:03.448Z,9.86
2019-05-07T19:55:08.504Z,9.66
2019-05-07T19:59:13.381Z,9.34
2019-05-07T20:03:18.845Z,9.18
2019-05-07T20:07:23.746Z,9.13
2019-05-07T20:11:31.968Z,8.93
2019-05-07T20:15:38.568Z,8.77
2019-05-07T20:19:43.520Z,8.71
2019-05-07T20:23:48.413Z,8.45
2019-05-07T20:27:53.298Z,8.19
2019-05-07T20:31:58.191Z,8.23
2019-05-07T20:36:03.078Z,8.27
2019-05-07T20:40:08.095Z,8.06
2019-05-07T20:44:13.057Z,7.98
2019-05-07T20:48:17.941Z,8.00
2019-05-07T20:52:23.081Z,7.98
2019-05-07T20:56:42.070Z,7.92
2019-05-07T21:00:47.394Z,7.76
2019-05-07T21:04:52.280Z,7.63
2019-05-07T21:08:57.168Z,7.53
2019-05-07T21:13:02.055Z,7.35
2019-05-07T21:17:06.952Z,7.19
2019-05-07T21:21:12.485Z,7.11
2019-05-07T21:25:17.584Z,7.11
2019-05-07T21:29:22.472Z,7.05
2019-05-07T21:33:27.365Z,6.92
2019-05-07T21:37:32.488Z,6.87
2019-05-07T21:41:37.411Z,6.85
2019-05-07T21:45:42.406Z,6.90
2019-05-07T21:49:47.338Z,6.90
2019-05-07T21:53:53.865Z,6.91
2019-05-07T21:58:02.342Z,6.96
2019-05-07T22:02:17.944Z,6.98
2019-05-07T22:06:22.947Z,7.00
2019-05-07T22:10:27.790Z,6.97
2019-05-07T22:14:32.950Z,7.03
2019-05-07T22:18:37.921Z,7.08
2019-05-07T22:22:42.866Z,7.06
2019-05-07T22:26:47.689Z,6.98
2019-05-07T22:30:54.215Z,6.88
2019-05-07T22:35:03.847Z,6.88
2019-05-07T22:39:12.480Z,6.81
2019-05-07T22:43:18.511Z,6.74
2019-05-07T22:47:23.473Z,6.68
2019-05-07T22:51:28.359Z,6.59
2019-05-07T22:55:34.215Z,6.62
2019-05-07T22:59:39.107Z,6.63
2019-05-07T23:03:43.991Z,6.57
2019-05-07T23:07:48.883Z,6.39
2019-05-07T23:11:54.978Z,6.45
2019-05-07T23:16:00.099Z,6.49
2019-05-07T23:20:06.160Z,6.61
2019-05-07T23:24:11.038Z,6.70
2019-05-07T23:28:15.930Z,6.72
2019-05-07T23:32:22.177Z,6.60
2019-05-07T23:36:27.090Z,6.62
2019-05-07T23:40:36.268Z,6.66
2019-05-07T23:44:42.009Z,6.78
2019-05-07T23:48:47.010Z,6.77
2019-05-07T23:52:52.710Z,6.84
2019-05-07T23:57:05.822Z,6.86
